Time;durP1;ratioP1;P1;durP2;ratioP2;P2;SDS_P1;SDS_P2;PMS_P1;PMS_P2;Temp;Humidity;BMP_temperature;BMP_pressure;BME280_temperature;BME280_humidity;BME280_pressure;Samples;Min_cycle;Max_cycle;Signal;HPM_P1;HPM_P2
2023/03/10 00:01:28;;;;;;;;;;;;;;;2.74;97.18;98345.09;134265;1298;22463;-81
2023/03/10 00:04:34;;;;;;;;;;;;;;;2.73;97.36;98346.10;134170;1302;23725;-80
2023/03/10 00:07:37;;;;;;;;;;;;;;;2.70;97.34;98350.95;134296;1291;22464;-81
2023/03/10 00:10:59;;;;;;;;;;;;;;;2.66;97.66;98346.58;134282;1298;22511;-81
2023/03/10 00:14:20;;;;;;;;;;;;;;;2.66;97.61;98352.93;134207;1298;23149;-80
2023/03/10 00:17:56;;;;;;;;;;;;;;;;;;;;;
2023/03/10 00:21:37;;;;;;;;;;;;;;;2.61;97.49;98349.94;134277;1298;23218;-81
2023/03/10 00:24:51;;;;;;;;;;;;;;;;;;;;;
2023/03/10 00:27:54;;;;;;;;;;;;;;;2.53;97.32;98350.92;134317;1301;23208;-81
2023/03/10 00:30:57;;;;;;;;;;;;;;;2.45;97.16;98350.54;134314;1296;22607;-80
2023/03/10 00:34:11;;;;;;;;;;;;;;;2.40;97.22;98345.81;134298;1297;23081;-80
2023/03/10 00:37:14;;;;;;;;;;;;;;;2.37;97.33;98337.66;134271;1298;22448;-80
2023/03/10 00:41:12;;;;;;;;;;;;;;;2.34;97.35;98330.08;134282;1298;22514;-80
2023/03/10 00:44:26;;;;;;;;;;;;;;;2.32;97.32;98325.39;134292;1297;22455;-81
2023/03/10 00:47:27;;;;;;;;;;;;;;;2.32;97.47;98322.45;134282;1298;22456;-80
2023/03/10 00:50:43;;;;;;;;;;;;;;;;;;;;;
2023/03/10 00:53:49;;;;;;;;;;;;;;;2.31;97.39;98310.44;134253;1298;22494;-80
2023/03/10 00:56:59;;;;;;;;;;;;;;;2.31;97.25;98304.55;134304;1297;23247;-81
2023/03/10 01:00:19;;;;;;;;;;;;;;;2.31;97.55;98300.16;134279;1297;22452;-80
2023/03/10 01:03:23;;;;;;;;;;;;;;;2.30;97.40;98284.30;134205;1297;22449;-80
2023/03/10 01:06:25;;;;;;;;;;;;;;;2.26;97.37;98279.94;134047;1298;22445;-80
2023/03/10 01:09:28;;;;;;;;;;;;;;;2.27;97.53;98280.35;134316;1297;23227;-80
2023/03/10 01:12:42;;;;;;;;;;;;;;;2.28;97.74;98269.66;134273;1298;22455;-80
2023/03/10 01:15:43;;;;;;;;;;;;;;;2.28;97.65;98267.58;134244;1297;22431;-80
2023/03/10 01:18:44;;;;;;;;;;;;;;;2.28;97.96;98263.89;134176;1301;22471;-80
2023/03/10 01:22:05;;;;;;;;;;;;;;;2.30;97.96;98255.86;134204;1297;22544;-80
2023/03/10 01:25:14;;;;;;;;;;;;;;;2.32;98.34;98250.15;134248;1297;22550;-80
2023/03/10 01:28:16;;;;;;;;;;;;;;;2.34;98.32;98245.42;134316;1298;22520;-80
2023/03/10 01:31:19;;;;;;;;;;;;;;;2.35;98.21;98241.52;134269;1285;22490;-80
2023/03/10 01:34:20;;;;;;;;;;;;;;;2.34;98.07;98240.96;134051;1298;23275;-80
2023/03/10 01:37:21;;;;;;;;;;;;;;;2.32;97.97;98238.53;134119;1298;22470;-80
2023/03/10 01:40:36;;;;;;;;;;;;;;;2.29;97.99;98237.77;134122;1297;23199;-80
2023/03/10 01:43:55;;;;;;;;;;;;;;;;;;;;;
2023/03/10 01:47:12;;;;;;;;;;;;;;;2.28;97.94;98225.13;134114;1297;23143;-80
2023/03/10 01:50:33;;;;;;;;;;;;;;;2.28;98.16;98220.98;133972;1304;22440;-80
2023/03/10 01:53:46;;;;;;;;;;;;;;;2.27;98.25;98214.05;134129;1298;23236;-80
2023/03/10 01:56:49;;;;;;;;;;;;;;;2.27;98.21;98212.73;134043;1298;23138;-80
2023/03/10 01:59:50;;;;;;;;;;;;;;;2.28;98.23;98203.48;134142;1298;22512;-81
2023/03/10 02:03:08;;;;;;;;;;;;;;;2.27;98.08;98199.81;133993;1298;22525;-81
2023/03/10 02:06:10;;;;;;;;;;;;;;;2.25;98.04;98196.08;134138;1298;22551;-80
2023/03/10 02:09:10;;;;;;;;;;;;;;;2.23;98.25;98188.63;134135;1298;22467;-80
2023/03/10 02:12:12;;;;;;;;;;;;;;;2.25;98.32;98183.63;134132;1297;22706;-80
2023/03/10 02:15:13;;;;;;;;;;;;;;;2.26;98.53;98183.14;133971;1297;22515;-80
2023/03/10 02:18:14;;;;;;;;;;;;;;;2.27;98.70;98185.63;134104;1298;22416;-80
2023/03/10 02:21:17;;;;;;;;;;;;;;;2.32;99.08;98188.41;134163;1297;22590;-79
2023/03/10 02:24:38;;;;;;;;;;;;;;;2.36;99.38;98174.41;134134;1297;22523;-80
2023/03/10 02:27:52;;;;;;;;;;;;;;;2.38;99.34;98176.61;134108;1302;22517;-81
2023/03/10 02:31:27;;;;;;;;;;;;;;;;;;;;;
2023/03/10 02:34:37;;;;;;;;;;;;;;;2.44;99.25;98163.03;134195;1298;22510;-81
2023/03/10 02:37:49;;;;;;;;;;;;;;;2.44;98.99;98159.48;134259;1301;22452;-81
2023/03/10 02:41:16;;;;;;;;;;;;;;;2.46;98.74;98160.61;134163;1298;22445;-81
2023/03/10 02:44:41;;;;;;;;;;;;;;;2.46;98.75;98151.52;134096;1298;22492;-80
2023/03/10 02:48:01;;;;;;;;;;;;;;;2.51;98.93;98145.16;134112;1298;23186;-81
2023/03/10 02:54:38;;;;;;;;;;;;;;;2.73;99.78;98139.01;134168;1298;22467;-81
2023/03/10 02:57:42;;;;;;;;;;;;;;;2.84;99.90;98138.58;134112;1301;22495;-81
2023/03/10 03:01:03;;;;;;;;;;;;;;;2.93;99.91;98130.23;134273;1298;22466;-80
2023/03/10 03:04:18;;;;;;;;;;;;;;;3.03;99.96;98120.10;134060;1301;22461;-81
2023/03/10 03:07:18;;;;;;;;;;;;;;;3.14;100.00;98116.05;134208;1297;22562;-81
2023/03/10 03:10:19;;;;;;;;;;;;;;;3.26;100.00;98110.70;134253;1298;23163;-81
2023/03/10 03:13:35;;;;;;;;;;;;;;;3.41;100.00;98098.20;134262;1298;23087;-81
2023/03/10 03:16:39;;;;;;;;;;;;;;;3.60;100.00;98088.40;134076;1304;23129;-81
2023/03/10 03:19:58;;;;;;;;;;;;;;;3.75;100.00;98083.57;134250;1304;22473;-81
2023/03/10 03:23:03;;;;;;;;;;;;;;;3.90;100.00;98081.34;134093;1304;22460;-81
2023/03/10 03:26:25;;;;;;;;;;;;;;;4.02;100.00;98070.94;134281;1298;24117;-81
2023/03/10 03:29:33;;;;;;;;;;;;;;;4.12;100.00;98072.02;134072;1298;22441;-81
2023/03/10 03:32:35;;;;;;;;;;;;;;;4.19;100.00;98071.80;134018;1298;23169;-81
2023/03/10 03:35:39;;;;;;;;;;;;;;;4.26;100.00;98069.05;134042;1298;23294;-80
2023/03/10 03:38:51;;;;;;;;;;;;;;;4.33;100.00;98059.61;134028;1298;22434;-82
2023/03/10 03:42:12;;;;;;;;;;;;;;;4.41;100.00;98053.84;134121;1297;22560;-81
2023/03/10 03:45:48;;;;;;;;;;;;;;;4.49;100.00;98049.91;134014;1298;22467;-81
2023/03/10 03:48:49;;;;;;;;;;;;;;;4.57;100.00;98042.20;134047;1304;22443;-81
2023/03/10 03:52:01;;;;;;;;;;;;;;;4.66;100.00;98032.56;134022;1298;22930;-81
2023/03/10 03:55:03;;;;;;;;;;;;;;;4.76;100.00;98027.20;133966;1300;22419;-81
2023/03/10 03:58:45;;;;;;;;;;;;;;;4.89;100.00;98025.97;134004;1299;22421;-81
2023/03/10 04:01:49;;;;;;;;;;;;;;;5.07;100.00;98020.38;134036;1301;22468;-81
2023/03/10 04:04:54;;;;;;;;;;;;;;;5.19;100.00;98018.59;134126;1291;22442;-81
2023/03/10 04:07:56;;;;;;;;;;;;;;;5.27;100.00;98015.77;134158;1298;22466;-81
2023/03/10 04:11:02;;;;;;;;;;;;;;;5.34;99.96;98008.62;134131;1298;22546;-80
2023/03/10 04:14:15;;;;;;;;;;;;;;;5.42;99.82;98004.54;134128;1298;23080;-81
2023/03/10 04:17:18;;;;;;;;;;;;;;;5.49;99.54;98000.80;134075;1299;22437;-81
2023/03/10 04:20:23;;;;;;;;;;;;;;;5.59;99.00;97997.23;134089;1302;22449;-81
2023/03/10 04:23:24;;;;;;;;;;;;;;;5.67;98.66;97994.49;134008;1301;22460;-81
2023/03/10 04:26:25;;;;;;;;;;;;;;;5.74;98.46;97994.52;134128;1302;22447;-81
2023/03/10 04:29:26;;;;;;;;;;;;;;;5.79;97.87;97987.20;134145;1297;23213;-81
2023/03/10 04:32:39;;;;;;;;;;;;;;;;;;;;;
2023/03/10 04:36:19;;;;;;;;;;;;;;;5.94;97.66;97984.04;134248;1299;23198;-80
2023/03/10 04:39:37;;;;;;;;;;;;;;;6.03;97.22;97981.83;134071;1304;23205;-81
2023/03/10 04:42:39;;;;;;;;;;;;;;;6.15;97.03;97976.20;134079;1304;22451;-81
2023/03/10 04:45:42;;;;;;;;;;;;;;;6.23;96.61;97964.34;134184;1303;22456;-81
2023/03/10 04:48:46;;;;;;;;;;;;;;;6.31;96.45;97965.02;134287;1298;22474;-80
2023/03/10 04:52:08;;;;;;;;;;;;;;;6.37;96.10;97963.64;134189;1301;22412;-80
2023/03/10 04:55:09;;;;;;;;;;;;;;;6.42;96.10;97965.21;134252;1296;22534;-80
2023/03/10 04:58:23;;;;;;;;;;;;;;;;;;;;;
2023/03/10 05:01:34;;;;;;;;;;;;;;;6.53;95.74;97954.38;134254;1296;22411;-80
2023/03/10 05:04:41;;;;;;;;;;;;;;;6.57;95.12;97946.21;134081;1299;22436;-80
2023/03/10 05:07:46;;;;;;;;;;;;;;;6.63;94.72;97938.42;134078;1304;22421;-81
2023/03/10 05:11:01;;;;;;;;;;;;;;;6.69;94.30;97938.50;134267;1297;23253;-81
2023/03/10 05:14:05;;;;;;;;;;;;;;;6.75;93.82;97936.90;134271;1301;23730;-80
2023/03/10 05:17:06;;;;;;;;;;;;;;;6.81;93.41;97936.33;134060;1297;22451;-80
2023/03/10 05:20:12;;;;;;;;;;;;;;;6.83;93.41;97940.39;134062;1298;22441;-81
2023/03/10 05:23:18;;;;;;;;;;;;;;;6.88;93.18;97941.42;134039;1298;22557;-81
2023/03/10 05:26:29;;;;;;;;;;;;;;;;;;;;;
2023/03/10 05:30:03;;;;;;;;;;;;;;;6.93;92.78;97939.27;134258;1297;22431;-80
2023/03/10 05:33:27;;;;;;;;;;;;;;;6.96;92.49;97945.04;134189;1297;23251;-80
2023/03/10 05:36:31;;;;;;;;;;;;;;;6.99;92.31;97949.76;134227;1303;22485;-80
2023/03/10 05:39:55;;;;;;;;;;;;;;;7.01;92.38;97943.98;134218;1301;22449;-80
2023/03/10 05:43:05;;;;;;;;;;;;;;;7.03;92.13;97939.95;133900;1297;22484;-76
2023/03/10 05:46:19;;;;;;;;;;;;;;;7.04;91.92;97926.98;133995;1296;22451;-76
2023/03/10 05:49:24;;;;;;;;;;;;;;;7.05;92.05;97926.86;134020;1297;22456;-78
2023/03/10 05:52:51;;;;;;;;;;;;;;;7.06;91.46;97928.33;134178;1298;22464;-79
2023/03/10 05:56:39;;;;;;;;;;;;;;;7.08;91.65;97936.88;134266;1299;22450;-77
2023/03/10 05:59:39;;;;;;;;;;;;;;;7.06;91.71;97942.92;134245;1297;22513;-81
2023/03/10 06:03:37;;;;;;;;;;;;;;;7.05;91.49;97944.14;134056;1299;22446;-78
2023/03/10 06:06:38;;;;;;;;;;;;;;;7.04;91.51;97935.42;134240;1302;22475;-77
2023/03/10 06:09:52;;;;;;;;;;;;;;;;;;;;;
2023/03/10 06:13:04;;;;;;;;;;;;;;;7.01;91.06;97917.55;134272;1298;22445;-79
2023/03/10 06:16:35;;;;;;;;;;;;;;;;;;;;;
2023/03/10 06:19:56;;;;;;;;;;;;;;;6.93;90.78;97921.38;134205;1298;22474;-78
2023/03/10 06:26:18;;;;;;;;;;;;;;;6.81;91.09;97901.30;134250;1296;22490;-78
2023/03/10 06:29:21;;;;;;;;;;;;;;;6.74;91.56;97893.59;134164;1295;22628;-78
2023/03/10 06:32:25;;;;;;;;;;;;;;;6.70;92.00;97885.10;134129;1298;23216;-78
2023/03/10 06:35:30;;;;;;;;;;;;;;;6.68;92.40;97875.13;134315;1296;23225;-78
2023/03/10 06:38:36;;;;;;;;;;;;;;;6.70;92.55;97880.69;134260;1297;22435;-74
2023/03/10 06:41:37;;;;;;;;;;;;;;;6.87;94.01;97885.54;134256;1297;22436;-74
2023/03/10 06:44:38;;;;;;;;;;;;;;;7.19;93.90;97885.48;134249;1297;23252;-74
2023/03/10 06:48:02;;;;;;;;;;;;;;;7.32;92.34;97879.98;134255;1296;22460;-74
2023/03/10 06:51:13;;;;;;;;;;;;;;;7.48;92.07;97870.79;134079;1300;23223;-71
2023/03/10 06:54:26;;;;;;;;;;;;;;;;;;;;;
2023/03/10 06:57:35;;;;;;;;;;;;;;;7.67;90.31;97859.31;134165;1301;22443;-72
2023/03/10 07:00:38;;;;;;;;;;;;;;;7.57;89.24;97857.96;134296;1297;22445;-73
2023/03/10 07:04:33;;;;;;;;;;;;;;;7.47;89.56;97864.50;134300;1298;22503;-79
2023/03/10 07:07:17;;;;;;;;;;;;;;;7.37;90.05;97859.90;134121;1298;22459;-73
2023/03/10 07:10:34;;;;;;;;;;;;;;;;;;;;;
2023/03/10 07:17:49;;;;;;;;;;;;;;;7.17;90.81;97858.41;133977;1298;22503;-79
2023/03/10 07:20:53;;;;;;;;;;;;;;;7.16;90.99;97862.18;134223;1297;22539;-78
2023/03/10 07:23:53;;;;;;;;;;;;;;;7.14;91.15;97870.89;134271;1296;22469;-78
2023/03/10 07:27:00;;;;;;;;;;;;;;;7.14;91.37;97870.27;134295;1297;22554;-78
2023/03/10 07:30:01;;;;;;;;;;;;;;;7.16;91.49;97867.61;134315;1295;22483;-78
2023/03/10 07:33:04;;;;;;;;;;;;;;;7.17;91.62;97866.95;134313;1296;23230;-86
2023/03/10 07:36:27;;;;;;;;;;;;;;;7.17;91.77;97864.48;134320;1296;22425;-77
2023/03/10 07:39:29;;;;;;;;;;;;;;;7.17;91.82;97859.58;134225;1291;22448;-78
2023/03/10 07:42:30;;;;;;;;;;;;;;;7.18;91.95;97860.31;134212;1297;23239;-78
2023/03/10 07:45:34;;;;;;;;;;;;;;;7.20;92.01;97864.24;134065;1297;22486;-78
2023/03/10 07:48:41;;;;;;;;;;;;;;;7.23;92.04;97863.41;134288;1298;22467;-77
2023/03/10 07:51:44;;;;;;;;;;;;;;;7.27;91.94;97853.67;134196;1294;22451;-78
2023/03/10 07:54:45;;;;;;;;;;;;;;;7.34;91.66;97847.80;134064;1299;23604;-78
2023/03/10 07:57:45;;;;;;;;;;;;;;;7.44;91.31;97839.32;134319;1298;22467;-80
2023/03/10 08:00:55;;;;;;;;;;;;;;;7.56;91.25;97838.44;134302;1297;22576;-77
2023/03/10 08:03:56;;;;;;;;;;;;;;;7.68;91.27;97837.78;134188;1298;22417;-77
2023/03/10 08:07:06;;;;;;;;;;;;;;;;;;;;;
2023/03/10 08:10:20;;;;;;;;;;;;;;;7.89;90.40;97825.58;134313;1298;22524;-82
2023/03/10 08:13:24;;;;;;;;;;;;;;;8.01;90.35;97829.98;134327;1296;22458;-82
2023/03/10 08:16:27;;;;;;;;;;;;;;;8.09;90.01;97823.06;134321;1297;22446;-78
2023/03/10 08:19:31;;;;;;;;;;;;;;;8.15;89.82;97831.63;134079;1301;22494;-87
2023/03/10 08:23:11;;;;;;;;;;;;;;;8.20;89.58;97838.69;134373;1295;23179;-78
2023/03/10 08:26:25;;;;;;;;;;;;;;;8.24;89.53;97842.74;134326;1297;23180;-77
2023/03/10 08:29:36;;;;;;;;;;;;;;;8.28;89.27;97843.62;134219;1297;22412;-79
2023/03/10 08:32:49;;;;;;;;;;;;;;;;;;;;;
2023/03/10 08:36:05;;;;;;;;;;;;;;;8.41;89.33;97851.52;134033;1298;22480;-78
2023/03/10 08:39:09;;;;;;;;;;;;;;;8.50;89.44;97850.70;134086;1297;22505;-77
2023/03/10 08:42:29;;;;;;;;;;;;;;;8.65;89.80;97842.28;133974;1298;22434;-80
2023/03/10 08:45:29;;;;;;;;;;;;;;;8.82;89.62;97835.77;134093;1297;22562;-78
2023/03/10 08:48:38;;;;;;;;;;;;;;;8.89;89.17;97836.44;134051;1298;22451;-78
2023/03/10 08:51:51;;;;;;;;;;;;;;;8.96;89.01;97837.70;134077;1298;22464;-78
2023/03/10 08:55:36;;;;;;;;;;;;;;;9.06;88.71;97843.71;134077;1297;22519;-78
2023/03/10 08:58:56;;;;;;;;;;;;;;;9.19;88.29;97844.41;134097;1297;22505;-78
2023/03/10 09:02:04;;;;;;;;;;;;;;;9.33;87.70;97835.60;134068;1298;23256;-78
2023/03/10 09:08:40;;;;;;;;;;;;;;;;;;;;;
2023/03/10 09:11:47;;;;;;;;;;;;;;;9.74;84.17;97824.38;134090;1298;22453;-77
2023/03/10 09:14:47;;;;;;;;;;;;;;;9.88;84.30;97827.30;134112;1298;22511;-87
2023/03/10 09:17:48;;;;;;;;;;;;;;;10.02;83.59;97823.55;134119;1297;23862;-78
2023/03/10 09:21:14;;;;;;;;;;;;;;;10.19;82.65;97819.70;134061;1297;23142;-77
2023/03/10 09:24:22;;;;;;;;;;;;;;;10.49;82.28;97819.32;134039;1297;22428;-78
2023/03/10 09:27:28;;;;;;;;;;;;;;;10.86;79.95;97821.17;134075;1297;22551;-77
2023/03/10 09:30:32;;;;;;;;;;;;;;;11.15;79.19;97824.48;134084;1297;23229;-80
2023/03/10 09:33:39;;;;;;;;;;;;;;;11.34;77.32;97826.55;134123;1298;22459;-77
2023/03/10 09:36:49;;;;;;;;;;;;;;;11.43;76.78;97821.84;134327;1298;22450;-86
2023/03/10 09:39:52;;;;;;;;;;;;;;;11.43;76.06;97829.06;134335;1298;22519;-77
2023/03/10 09:42:58;;;;;;;;;;;;;;;11.38;75.62;97836.75;134298;1297;22409;-77
2023/03/10 09:46:25;;;;;;;;;;;;;;;11.30;75.29;97841.11;134205;1297;22457;-77
2023/03/10 09:49:39;;;;;;;;;;;;;;;11.21;75.38;97845.90;134325;1298;23287;-77
2023/03/10 09:52:48;;;;;;;;;;;;;;;11.15;75.18;97835.70;134190;1298;22536;-77
2023/03/10 09:55:49;;;;;;;;;;;;;;;11.10;75.22;97823.79;134069;1301;22446;-81
2023/03/10 09:58:55;;;;;;;;;;;;;;;11.05;75.38;97820.52;134317;1297;22477;-80
2023/03/10 10:02:38;;;;;;;;;;;;;;;10.99;75.00;97821.99;134218;1297;23073;-84
2023/03/10 10:06:10;;;;;;;;;;;;;;;;;;;;;
2023/03/10 10:09:24;;;;;;;;;;;;;;;10.89;74.89;97826.29;134310;1297;22446;-77
2023/03/10 10:12:35;;;;;;;;;;;;;;;10.85;74.34;97829.04;134189;1297;22491;-77
2023/03/10 10:16:32;;;;;;;;;;;;;;;10.81;74.50;97826.89;134336;1298;23083;-78
2023/03/10 10:20:03;;;;;;;;;;;;;;;;;;;;;
2023/03/10 10:23:24;;;;;;;;;;;;;;;10.77;74.51;97826.15;134094;1298;22491;-80
2023/03/10 10:26:27;;;;;;;;;;;;;;;10.78;74.33;97816.34;134365;1296;22472;-78
2023/03/10 10:29:35;;;;;;;;;;;;;;;10.81;73.72;97811.08;134332;1297;22506;-83
2023/03/10 10:37:04;;;;;;;;;;;;;;;10.94;73.97;97788.70;133935;1297;23298;-73
2023/03/10 10:40:39;;;;;;;;;;;;;;;11.15;73.76;97794.98;134110;1297;22462;-74
2023/03/10 10:43:41;;;;;;;;;;;;;;;11.43;73.31;97789.13;134045;1297;22495;-81
2023/03/10 10:47:00;;;;;;;;;;;;;;;11.61;73.06;97783.30;134105;1297;22490;-74
2023/03/10 10:50:30;;;;;;;;;;;;;;;;;;;;;
2023/03/10 10:53:46;;;;;;;;;;;;;;;;;;;;;
2023/03/10 10:56:54;;;;;;;;;;;;;;;12.15;71.77;97784.19;134115;1304;22482;-74
2023/03/10 11:00:39;;;;;;;;;;;;;;;12.32;70.83;97782.47;134113;1297;23124;-76
2023/03/10 11:03:47;;;;;;;;;;;;;;;12.55;70.28;97781.77;133265;1305;22511;-73
2023/03/10 11:06:51;;;;;;;;;;;;;;;12.96;70.09;97775.99;133989;1301;22422;-75
2023/03/10 11:09:58;;;;;;;;;;;;;;;13.37;68.84;97771.39;134092;1297;22469;-71
2023/03/10 11:13:03;;;;;;;;;;;;;;;13.63;68.51;97772.21;134105;1297;22437;-73
2023/03/10 11:16:21;;;;;;;;;;;;;;;;;;;;;
2023/03/10 11:19:32;;;;;;;;;;;;;;;13.83;67.33;97763.57;134105;1297;22452;-71
2023/03/10 11:22:56;;;;;;;;;;;;;;;13.88;67.67;97757.66;134123;1297;22528;-76
2023/03/10 11:26:21;;;;;;;;;;;;;;;;;;;;;
2023/03/10 11:29:46;;;;;;;;;;;;;;;13.74;66.25;97763.54;134012;1297;22478;-78
2023/03/10 11:32:50;;;;;;;;;;;;;;;13.59;65.29;97764.39;134143;1297;23247;-78
2023/03/10 11:36:14;;;;;;;;;;;;;;;13.36;65.31;97764.52;134217;1297;23160;-86
2023/03/10 11:39:34;;;;;;;;;;;;;;;13.11;64.84;97775.67;134270;1296;22480;-80
2023/03/10 11:43:01;;;;;;;;;;;;;;;12.93;64.53;97777.44;134311;1297;23161;-78
2023/03/10 11:46:18;;;;;;;;;;;;;;;12.82;65.44;97769.35;134307;1297;22447;-78
2023/03/10 11:49:31;;;;;;;;;;;;;;;12.79;65.22;97764.50;134316;1296;22552;-79
2023/03/10 11:52:54;;;;;;;;;;;;;;;12.78;65.68;97767.73;134331;1296;22431;-78
2023/03/10 11:56:01;;;;;;;;;;;;;;;12.76;65.79;97769.94;134008;1298;22515;-78
2023/03/10 11:59:11;;;;;;;;;;;;;;;12.72;65.88;97769.81;134176;1297;22460;-78
2023/03/10 12:02:12;;;;;;;;;;;;;;;12.70;65.49;97766.58;134198;1295;22453;-78
2023/03/10 12:05:21;;;;;;;;;;;;;;;12.67;66.21;97763.91;134302;1304;22465;-78
2023/03/10 12:08:43;;;;;;;;;;;;;;;12.64;66.50;97761.89;134326;1300;22460;-78
2023/03/10 12:11:57;;;;;;;;;;;;;;;12.57;66.04;97755.48;134325;1297;23235;-79
2023/03/10 12:14:59;;;;;;;;;;;;;;;12.51;66.43;97757.13;134300;1298;23202;-79
2023/03/10 12:18:01;;;;;;;;;;;;;;;12.49;66.79;97755.39;134343;1298;22460;-86
2023/03/10 12:21:22;;;;;;;;;;;;;;;12.50;66.54;97750.02;134362;1296;23161;-78
2023/03/10 12:24:44;;;;;;;;;;;;;;;12.51;66.40;97747.71;134194;1297;22455;-78
2023/03/10 12:28:06;;;;;;;;;;;;;;;12.52;66.97;97742.99;134353;1297;22467;-79
2023/03/10 12:31:13;;;;;;;;;;;;;;;12.53;67.12;97739.52;134296;1297;22468;-78
2023/03/10 12:34:14;;;;;;;;;;;;;;;12.55;67.57;97738.15;134187;1297;22490;-78
2023/03/10 12:37:21;;;;;;;;;;;;;;;12.60;67.64;97734.84;134327;1295;22455;-79
2023/03/10 12:40:52;;;;;;;;;;;;;;;12.67;67.16;97734.16;134154;1297;23207;-81
2023/03/10 12:44:03;;;;;;;;;;;;;;;12.73;67.08;97732.95;134323;1297;23232;-79
2023/03/10 12:47:06;;;;;;;;;;;;;;;12.82;67.44;97729.65;134175;1297;22489;-78
2023/03/10 12:50:28;;;;;;;;;;;;;;;12.92;67.30;97725.98;134318;1298;22475;-79
2023/03/10 12:53:57;;;;;;;;;;;;;;;13.08;67.57;97726.36;134185;1298;22415;-78
2023/03/10 12:57:37;;;;;;;;;;;;;;;;;;;;;
2023/03/10 13:00:48;;;;;;;;;;;;;;;13.55;66.73;97722.55;134329;1296;22442;-84
2023/03/10 13:03:54;;;;;;;;;;;;;;;13.74;66.53;97723.14;134327;1297;23370;-79
2023/03/10 13:07:02;;;;;;;;;;;;;;;13.93;65.85;97718.21;134114;1299;22462;-82
2023/03/10 13:10:14;;;;;;;;;;;;;;;14.05;65.35;97718.38;134211;1297;22422;-78
2023/03/10 13:13:20;;;;;;;;;;;;;;;14.09;65.09;97716.19;134225;1298;23062;-77
2023/03/10 13:16:41;;;;;;;;;;;;;;;14.06;65.29;97715.73;134294;1297;22948;-78
2023/03/10 13:19:55;;;;;;;;;;;;;;;13.98;65.12;97708.48;134340;1298;23216;-77
2023/03/10 13:22:57;;;;;;;;;;;;;;;13.85;64.87;97708.05;134138;1298;23256;-77
2023/03/10 13:25:59;;;;;;;;;;;;;;;13.80;65.29;97709.20;134088;1298;22438;-78
2023/03/10 13:29:01;;;;;;;;;;;;;;;13.79;64.81;97700.83;134075;1298;22430;-78
2023/03/10 13:32:19;;;;;;;;;;;;;;;13.74;64.34;97705.23;134122;1297;22444;-77
2023/03/10 13:35:33;;;;;;;;;;;;;;;13.70;64.64;97700.23;134114;1298;22488;-78
2023/03/10 13:38:41;;;;;;;;;;;;;;;13.68;63.83;97693.27;134058;1297;22471;-77
2023/03/10 13:41:49;;;;;;;;;;;;;;;13.70;64.33;97688.98;134062;1297;22452;-77
2023/03/10 13:44:53;;;;;;;;;;;;;;;13.72;64.28;97682.45;134159;1297;22416;-77
2023/03/10 13:47:53;;;;;;;;;;;;;;;13.70;64.47;97693.23;134144;1297;23227;-77
2023/03/10 13:51:18;;;;;;;;;;;;;;;13.62;64.35;97697.13;134115;1298;22438;-78
2023/03/10 13:54:30;;;;;;;;;;;;;;;13.55;64.38;97704.74;134161;1297;22447;-77
2023/03/10 13:57:34;;;;;;;;;;;;;;;13.52;64.50;97704.70;134180;1297;22456;-79
2023/03/10 14:00:38;;;;;;;;;;;;;;;13.49;64.33;97701.45;134150;1298;22500;-77
2023/03/10 14:03:50;;;;;;;;;;;;;;;13.46;64.59;97698.17;134129;1297;22444;-78
2023/03/10 14:07:17;;;;;;;;;;;;;;;;;;;;;
2023/03/10 14:10:23;;;;;;;;;;;;;;;13.38;64.21;97682.08;134086;1297;22536;-77
2023/03/10 14:13:43;;;;;;;;;;;;;;;13.38;64.63;97684.96;134137;1297;22572;-81
2023/03/10 14:16:49;;;;;;;;;;;;;;;13.37;64.53;97682.08;134072;1301;22482;-77
2023/03/10 14:20:08;;;;;;;;;;;;;;;;;;;;;
2023/03/10 14:23:21;;;;;;;;;;;;;;;13.24;63.45;97685.41;134073;1298;22454;-77
2023/03/10 14:26:27;;;;;;;;;;;;;;;13.17;63.57;97689.55;134135;1297;22519;-78
2023/03/10 14:30:00;;;;;;;;;;;;;;;;;;;;;
2023/03/10 14:33:29;;;;;;;;;;;;;;;13.06;63.55;97680.27;134181;1297;22470;-77
2023/03/10 14:36:32;;;;;;;;;;;;;;;13.04;63.91;97683.40;134106;1291;23204;-78
2023/03/10 14:39:49;;;;;;;;;;;;;;;;;;;;;
2023/03/10 14:43:03;;;;;;;;;;;;;;;12.98;63.81;97677.19;134285;1297;23260;-78
2023/03/10 14:46:13;;;;;;;;;;;;;;;12.95;63.95;97672.97;134338;1298;22436;-78
2023/03/10 14:49:37;;;;;;;;;;;;;;;12.92;64.08;97670.73;134349;1297;22448;-78
2023/03/10 14:52:40;;;;;;;;;;;;;;;12.90;63.76;97672.47;134254;1297;23190;-78
2023/03/10 14:55:59;;;;;;;;;;;;;;;12.89;64.01;97673.35;134285;1296;24016;-79
2023/03/10 14:59:07;;;;;;;;;;;;;;;12.89;64.17;97669.98;134302;1298;22437;-87
2023/03/10 15:02:22;;;;;;;;;;;;;;;12.88;64.09;97661.77;134289;1297;22464;-77
2023/03/10 15:05:24;;;;;;;;;;;;;;;12.87;63.96;97657.63;134296;1297;22454;-79
2023/03/10 15:11:44;;;;;;;;;;;;;;;12.84;63.53;97645.17;134300;1297;23251;-78
2023/03/10 15:14:56;;;;;;;;;;;;;;;12.82;63.61;97638.96;134294;1298;22446;-77
2023/03/10 15:17:57;;;;;;;;;;;;;;;12.80;63.52;97635.41;134254;1297;22485;-77
2023/03/10 15:21:28;;;;;;;;;;;;;;;12.78;63.53;97630.80;134314;1298;22460;-79
2023/03/10 15:24:57;;;;;;;;;;;;;;;12.76;63.46;97632.49;134313;1296;23022;-80
2023/03/10 15:28:26;;;;;;;;;;;;;;;12.75;63.40;97632.16;134036;1296;22485;-78
2023/03/10 15:35:30;;;;;;;;;;;;;;;12.71;63.34;97619.84;134254;1301;22457;-78
2023/03/10 15:38:33;;;;;;;;;;;;;;;12.67;63.38;97624.50;134113;1297;23377;-77
2023/03/10 15:41:38;;;;;;;;;;;;;;;12.60;63.33;97625.93;134111;1300;22535;-77
2023/03/10 15:45:17;;;;;;;;;;;;;;;12.53;63.38;97626.17;134183;1297;22424;-77
2023/03/10 15:48:33;;;;;;;;;;;;;;;12.43;63.46;97617.71;134286;1297;23305;-77
2023/03/10 15:51:36;;;;;;;;;;;;;;;12.36;63.53;97617.11;134292;1296;22445;-79
2023/03/10 15:54:37;;;;;;;;;;;;;;;12.28;63.72;97608.20;134278;1298;22531;-80
2023/03/10 15:57:38;;;;;;;;;;;;;;;12.21;63.77;97604.08;134290;1296;24172;-78
2023/03/10 16:00:38;;;;;;;;;;;;;;;12.11;63.88;97604.17;134300;1297;22535;-75
2023/03/10 16:03:39;;;;;;;;;;;;;;;12.01;64.01;97601.75;134295;1296;22504;-82
2023/03/10 16:06:39;;;;;;;;;;;;;;;11.91;63.98;97604.83;133921;1296;22511;-76
2023/03/10 16:09:50;;;;;;;;;;;;;;;11.85;64.02;97610.13;134257;1298;22440;-79
2023/03/10 16:12:51;;;;;;;;;;;;;;;11.76;64.29;97612.30;134065;1298;22469;-79
2023/03/10 16:15:52;;;;;;;;;;;;;;;11.66;64.40;97609.60;134264;1298;22464;-78
2023/03/10 16:18:53;;;;;;;;;;;;;;;11.58;64.60;97610.60;134234;1297;23138;-81
2023/03/10 16:21:53;;;;;;;;;;;;;;;11.50;64.62;97609.79;134277;1296;23213;-77
2023/03/10 16:24:54;;;;;;;;;;;;;;;11.42;64.80;97609.62;134134;1295;23147;-76
2023/03/10 16:27:57;;;;;;;;;;;;;;;11.32;64.82;97609.52;134108;1301;22448;-79
2023/03/10 16:30:59;;;;;;;;;;;;;;;11.21;65.06;97599.90;134264;1298;22452;-85
2023/03/10 16:34:00;;;;;;;;;;;;;;;11.17;65.28;97600.25;134139;1298;22512;-79
2023/03/10 16:37:01;;;;;;;;;;;;;;;11.13;65.30;97600.49;134250;1297;22649;-82
2023/03/10 16:40:03;;;;;;;;;;;;;;;11.11;65.58;97598.75;134245;1296;22434;-79
2023/03/10 16:43:24;;;;;;;;;;;;;;;11.06;65.53;97600.24;134179;1297;22585;-80
2023/03/10 16:46:30;;;;;;;;;;;;;;;11.01;65.75;97601.92;134252;1297;23368;-81
2023/03/10 16:49:35;;;;;;;;;;;;;;;10.96;65.83;97598.21;134174;1297;22453;-79
2023/03/10 16:52:41;;;;;;;;;;;;;;;10.92;66.20;97597.79;134063;1298;22482;-79
2023/03/10 16:55:41;;;;;;;;;;;;;;;10.90;66.43;97592.86;134191;1295;22468;-80
2023/03/10 16:58:52;;;;;;;;;;;;;;;10.88;66.57;97594.31;134238;1297;23543;-81
2023/03/10 17:02:02;;;;;;;;;;;;;;;10.87;66.64;97590.41;134160;1296;22474;-79
2023/03/10 17:05:09;;;;;;;;;;;;;;;10.88;66.70;97590.16;134130;1298;22598;-80
2023/03/10 17:08:13;;;;;;;;;;;;;;;10.89;66.59;97588.21;134268;1296;22682;-80
2023/03/10 17:11:27;;;;;;;;;;;;;;;10.89;66.79;97580.02;133909;1298;22468;-79
2023/03/10 17:14:31;;;;;;;;;;;;;;;10.89;66.79;97580.25;134054;1297;23204;-81
2023/03/10 17:17:35;;;;;;;;;;;;;;;10.87;66.81;97582.25;134234;1288;22458;-79
2023/03/10 17:20:44;;;;;;;;;;;;;;;10.85;66.85;97580.91;134241;1297;22449;-79
2023/03/10 17:23:51;;;;;;;;;;;;;;;10.82;66.90;97579.20;134171;1295;22448;-84
2023/03/10 17:26:52;;;;;;;;;;;;;;;10.79;66.90;97577.16;134149;1298;22548;-84
2023/03/10 17:30:01;;;;;;;;;;;;;;;10.76;66.89;97581.82;134244;1297;22456;-79
2023/03/10 17:33:02;;;;;;;;;;;;;;;10.74;66.97;97581.77;134261;1297;22444;-83